Time;durP1;ratioP1;P1;durP2;ratioP2;P2;SDS_P1;SDS_P2;PMS_P1;PMS_P2;Temp;Humidity;BMP_temperature;BMP_pressure;BME280_temperature;BME280_humidity;BME280_pressure;Samples;Min_cycle;Max_cycle;Signal;HPM_P1;HPM_P2
2023/06/02 00:01:43;;;;;;;9.93;5.60;;;;;;;12.67;66.55;98780.34;4820075;29;20049;-73
2023/06/02 00:04:37;;;;;;;11.75;5.07;;;;;;;12.60;66.36;98793.47;4828128;29;20428;-77
2023/06/02 00:07:03;;;;;;;9.60;5.13;;;;;;;12.55;66.38;98793.03;4829385;29;20041;-75
2023/06/02 00:09:36;;;;;;;10.90;5.10;;;;;;;12.55;66.60;98798.41;4827046;29;20386;-73
2023/06/02 00:12:03;;;;;;;8.98;4.50;;;;;;;12.52;67.19;98766.63;4826640;29;20060;-77
2023/06/02 00:14:55;;;;;;;8.45;6.03;;;;;;;12.57;67.34;98768.84;4827042;29;20433;-80
2023/06/02 00:17:46;;;;;;;12.02;5.47;;;;;;;12.49;67.43;98774.06;4833058;29;20058;-78
2023/06/02 00:20:11;;;;;;;12.52;5.57;;;;;;;12.47;66.76;98773.38;4843022;29;20048;-75
2023/06/02 00:22:41;;;;;;;14.90;5.10;;;;;;;12.39;66.71;98787.44;4853751;29;20038;-76
2023/06/02 00:25:07;;;;;;;10.30;5.65;;;;;;;12.40;67.06;98764.25;4813814;29;20057;-74
2023/06/02 00:27:32;;;;;;;17.90;6.40;;;;;;;12.35;67.14;98770.00;4822436;29;20452;-75
2023/06/02 00:32:55;;;;;;;12.18;5.07;;;;;;;12.33;68.04;98767.47;4811855;29;20053;-76
2023/06/02 00:35:21;;;;;;;12.13;5.57;;;;;;;12.32;67.69;98764.94;4827535;29;20078;-77
2023/06/02 00:37:46;;;;;;;12.05;5.80;;;;;;;12.29;67.75;98762.56;4828895;29;20079;-78
2023/06/02 00:40:14;;;;;;;13.82;5.25;;;;;;;12.27;67.85;98761.84;4828108;29;20057;-75
2023/06/02 00:42:45;;;;;;;9.23;5.28;;;;;;;12.24;67.92;98752.28;4842652;29;20413;-77
2023/06/02 00:45:40;;;;;;;9.40;5.50;;;;;;;12.32;68.35;98765.78;4826053;29;20062;-77
2023/06/02 00:48:08;;;;;;;10.18;5.70;;;;;;;12.26;68.33;98761.00;4827142;29;20076;-77
2023/06/02 00:50:35;;;;;;;13.65;5.95;;;;;;;12.26;68.41;98792.22;4825656;29;20057;-76
2023/06/02 00:53:02;;;;;;;11.30;6.22;;;;;;;12.24;68.30;98783.50;4829946;29;20041;-74
2023/06/02 00:55:30;;;;;;;16.50;7.57;;;;;;;12.24;68.42;98756.78;4836142;29;20049;-74
2023/06/02 00:58:05;;;;;;;11.25;5.57;;;;;;;12.22;68.85;98785.47;4835474;29;20049;-75
2023/06/02 01:00:36;;;;;;;11.38;6.70;;;;;;;12.19;68.77;98759.06;4830279;29;20520;-74
2023/06/02 01:03:28;;;;;;;9.95;5.70;;;;;;;12.17;69.11;98761.03;4827959;29;20053;-77
2023/06/02 01:05:55;;;;;;;11.32;5.63;;;;;;;12.14;69.04;98755.94;4826204;29;20057;-74
2023/06/02 01:08:21;;;;;;;10.65;4.97;;;;;;;12.12;68.99;98764.09;4832670;29;20465;-75
2023/06/02 01:10:46;;;;;;;11.00;5.53;;;;;;;12.11;69.16;98772.25;4824855;29;20060;-72
2023/06/02 01:13:15;;;;;;;8.52;4.82;;;;;;;12.10;69.36;98767.88;4813274;29;20064;-72
2023/06/02 01:15:46;;;;;;;9.30;5.25;;;;;;;12.10;69.02;98776.75;4811484;29;20045;-73
2023/06/02 01:18:17;;;;;;;10.45;5.15;;;;;;;12.05;69.57;98778.16;4832974;29;20057;-73
2023/06/02 01:20:48;;;;;;;13.20;6.03;;;;;;;12.05;69.66;98762.13;4819805;29;20042;-73
2023/06/02 01:23:49;;;;;;;12.48;5.75;;;;;;;12.03;69.73;98780.97;4838885;29;20053;-75
2023/06/02 01:26:16;;;;;;;16.42;6.25;;;;;;;11.99;69.75;98780.41;4820461;29;20050;-74
2023/06/02 01:28:42;;;;;;;11.20;5.15;;;;;;;11.98;70.06;98777.88;4795237;29;20057;-76
2023/06/02 01:31:14;;;;;;;10.25;5.03;;;;;;;11.97;70.26;98779.69;4835829;29;20059;-79
2023/06/02 01:37:22;;;;;;;10.32;6.25;;;;;;;11.95;69.88;98784.34;4846394;29;20037;-71
2023/06/02 01:39:49;;;;;;;9.13;4.78;;;;;;;11.94;70.13;98774.66;4830288;29;20041;-70
2023/06/02 01:42:15;;;;;;;11.52;5.35;;;;;;;11.94;70.00;98763.97;4847972;29;20059;-68
2023/06/02 01:44:43;;;;;;;9.63;5.35;;;;;;;11.96;70.15;98767.31;4864562;29;20030;-68
2023/06/02 01:47:14;;;;;;;11.93;5.97;;;;;;;11.98;70.55;98772.53;4850888;29;20057;-73
2023/06/02 01:49:42;;;;;;;9.25;4.85;;;;;;;12.00;69.90;98781.25;4844006;29;20053;-73
2023/06/02 01:52:08;;;;;;;6.47;4.38;;;;;;;12.03;70.47;98770.28;4813967;29;20042;-74
2023/06/02 01:54:33;;;;;;;16.40;5.32;;;;;;;12.10;70.54;98782.09;4824537;29;20521;-72
2023/06/02 01:57:01;;;;;;;14.85;5.88;;;;;;;12.14;70.67;98782.66;4822733;29;20052;-72
2023/06/02 01:59:28;;;;;;;8.68;5.22;;;;;;;12.24;70.77;98794.19;4809189;29;20069;-73
2023/06/02 02:02:01;;;;;;;11.52;5.63;;;;;;;12.27;70.33;98820.66;4825952;29;20060;-74
2023/06/02 02:04:32;;;;;;;13.13;6.10;;;;;;;12.34;70.60;98793.22;4812082;29;20053;-70
2023/06/02 02:07:01;;;;;;;10.98;5.10;;;;;;;12.40;70.51;98810.53;4822358;29;20053;-70
2023/06/02 02:09:29;;;;;;;14.65;5.38;;;;;;;12.50;70.46;98789.97;4824816;29;20049;-68
2023/06/02 02:14:51;;;;;;;11.85;5.07;;;;;;;12.79;70.32;98800.59;4839271;29;20068;-71
2023/06/02 02:17:17;;;;;;;20.95;7.72;;;;;;;12.98;70.02;98789.03;4825187;29;20058;-69
2023/06/02 02:22:36;;;;;;;10.35;5.90;;;;;;;13.41;69.03;98793.81;4839344;29;20053;-69
2023/06/02 02:25:04;;;;;;;16.80;6.70;;;;;;;13.56;68.58;98810.22;4824351;29;20053;-69
2023/06/02 02:27:35;;;;;;;12.88;6.13;;;;;;;13.68;68.22;98798.31;4817205;29;20050;-70
2023/06/02 02:30:04;;;;;;;11.52;5.78;;;;;;;13.80;67.95;98797.97;4810936;29;20037;-71
2023/06/02 02:32:38;;;;;;;;;;;;;;;14.08;68.04;98800.59;4839124;29;20049;-72
2023/06/02 02:35:04;;;;;;;12.20;5.78;;;;;;;14.02;67.09;98790.47;4823313;29;19924;-70
2023/06/02 02:37:33;;;;;;;9.57;5.03;;;;;;;14.06;67.24;98781.16;4823036;29;20060;-69
2023/06/02 02:40:05;;;;;;;14.35;6.15;;;;;;;14.12;66.79;98818.91;4824390;29;20061;-71
2023/06/02 02:42:33;;;;;;;12.23;7.03;;;;;;;14.11;67.47;98811.00;4806270;29;20057;-78
2023/06/02 02:45:04;;;;;;;9.93;5.90;;;;;;;14.13;67.34;98799.16;4811962;29;20080;-73
2023/06/02 02:47:32;;;;;;;11.93;6.50;;;;;;;14.13;67.29;98785.75;4808786;29;20049;-77
2023/06/02 02:49:59;;;;;;;12.90;6.32;;;;;;;14.16;67.12;98814.09;4824198;29;20069;-75
2023/06/02 02:52:28;;;;;;;13.35;6.07;;;;;;;14.20;67.06;98815.47;4824899;29;20076;-73
2023/06/02 02:54:53;;;;;;;11.57;5.90;;;;;;;14.27;67.14;98802.28;4823244;29;20449;-74
2023/06/02 02:57:18;;;;;;;14.23;7.05;;;;;;;14.36;67.26;98796.84;4822540;29;20507;-72
2023/06/02 02:59:47;;;;;;;12.50;6.22;;;;;;;14.45;67.15;98819.25;4824369;29;20630;-73
2023/06/02 03:02:15;;;;;;;13.52;6.18;;;;;;;14.50;66.70;98800.84;4820554;29;20048;-73
2023/06/02 03:04:41;;;;;;;14.65;6.22;;;;;;;14.56;66.94;98805.59;4803597;29;20081;-72
2023/06/02 03:07:11;;;;;;;17.05;6.07;;;;;;;14.59;66.25;98805.28;4819320;29;20131;-73
2023/06/02 03:09:36;;;;;;;10.23;5.85;;;;;;;14.61;66.63;98813.19;4818779;29;20057;-73
2023/06/02 03:12:02;;;;;;;13.52;6.32;;;;;;;14.66;66.35;98814.41;4804160;29;20053;-74
2023/06/02 03:14:29;;;;;;;16.60;6.80;;;;;;;14.70;66.81;98813.09;4827640;29;20050;-75
2023/06/02 03:16:57;;;;;;;15.18;6.30;;;;;;;14.75;66.16;98821.53;4824087;29;20046;-76
2023/06/02 03:19:26;;;;;;;15.88;5.78;;;;;;;14.84;66.02;98815.22;4804685;29;20229;-73
2023/06/02 03:21:53;;;;;;;11.70;5.97;;;;;;;14.94;65.71;98814.25;4804538;29;20524;-76
2023/06/02 03:24:20;;;;;;;18.13;6.13;;;;;;;15.03;65.94;98830.25;4774491;29;20060;-74
2023/06/02 03:26:55;;;;;;;15.77;6.47;;;;;;;15.08;64.42;98814.53;4808508;29;20045;-75
2023/06/02 03:29:22;;;;;;;13.70;6.90;;;;;;;15.09;64.10;98816.22;4813102;29;20054;-76
2023/06/02 03:31:55;;;;;;;13.85;6.53;;;;;;;15.09;63.77;98823.44;4805914;29;20490;-76
2023/06/02 03:34:30;;;;;;;15.88;6.72;;;;;;;15.08;63.33;98813.69;4804537;29;20062;-75
2023/06/02 03:43:17;;;;;;;17.90;5.85;;;;;;;14.92;62.11;98811.72;4834680;29;20540;-76
2023/06/02 03:45:43;;;;;;;17.13;6.68;;;;;;;14.88;62.59;98811.22;4819865;29;20057;-77
2023/06/02 03:48:09;;;;;;;19.05;7.65;;;;;;;14.84;62.28;98815.22;4819692;29;20061;-76
2023/06/02 03:50:36;;;;;;;15.15;6.53;;;;;;;14.79;62.17;98827.41;4819910;29;20071;-77
2023/06/02 03:53:02;;;;;;;18.17;8.07;;;;;;;14.73;62.55;98812.78;4819899;29;20134;-76
2023/06/02 03:55:27;;;;;;;23.52;7.85;;;;;;;14.69;62.74;98815.91;4806481;29;20069;-76
2023/06/02 03:57:53;;;;;;;27.63;7.82;;;;;;;14.62;63.49;98804.13;4820436;29;20054;-76
2023/06/02 04:00:19;;;;;;;15.05;6.80;;;;;;;14.60;63.70;98801.59;4804289;29;20399;-76
2023/06/02 04:02:50;;;;;;;19.30;6.53;;;;;;;14.61;64.36;98797.09;4835045;29;20513;-72
2023/06/02 04:05:16;;;;;;;17.00;7.43;;;;;;;14.62;64.35;98809.50;4819644;29;20425;-74
2023/06/02 04:07:46;;;;;;;23.38;7.80;;;;;;;14.70;64.86;98797.00;4819811;29;20054;-75
2023/06/02 04:10:13;;;;;;;18.15;8.18;;;;;;;14.73;64.01;98806.56;4819416;29;20053;-75
2023/06/02 04:15:42;;;;;;;20.77;8.45;;;;;;;14.90;64.13;98781.53;4819118;29;20065;-75
2023/06/02 04:18:08;;;;;;;20.58;8.05;;;;;;;14.95;63.61;98805.22;4819237;29;20049;-74
2023/06/02 04:20:34;;;;;;;18.80;7.57;;;;;;;14.99;63.62;98780.59;4803958;29;20053;-76
2023/06/02 04:23:00;;;;;;;20.27;6.95;;;;;;;15.02;63.99;98796.38;4819426;29;20415;-76
2023/06/02 04:25:27;;;;;;;14.68;6.45;;;;;;;15.06;63.90;98778.94;4819971;29;20533;-76
2023/06/02 04:27:54;;;;;;;13.55;7.00;;;;;;;15.12;64.39;98791.72;4819889;29;20054;-76
2023/06/02 04:30:26;;;;;;;24.00;7.43;;;;;;;15.24;64.28;98805.72;4828238;29;20057;-78
2023/06/02 04:32:56;;;;;;;14.13;6.28;;;;;;;15.44;63.85;98774.13;4828857;29;20054;-76
2023/06/02 04:35:27;;;;;;;19.00;8.20;;;;;;;15.58;62.95;98778.88;4844327;29;20065;-76
2023/06/02 04:37:52;;;;;;;13.82;6.95;;;;;;;15.70;62.39;98801.78;4809623;29;20069;-76
2023/06/02 04:40:18;;;;;;;21.05;7.60;;;;;;;15.76;61.69;98778.78;4835578;29;20145;-76
2023/06/02 04:42:48;;;;;;;26.55;8.38;;;;;;;15.80;61.17;98764.03;4789038;29;20061;-77
2023/06/02 04:45:16;;;;;;;19.58;10.38;;;;;;;15.77;60.97;98767.88;4838290;29;20050;-77
2023/06/02 04:47:48;;;;;;;23.25;8.75;;;;;;;15.77;61.28;98792.06;4820525;29;20050;-76
2023/06/02 04:50:17;;;;;;;17.35;7.28;;;;;;;15.79;60.86;98767.72;4796392;29;20090;-77
2023/06/02 04:52:45;;;;;;;14.40;8.00;;;;;;;15.84;60.68;98785.03;4812083;29;20064;-75
2023/06/02 04:55:14;;;;;;;18.25;7.47;;;;;;;15.94;60.83;98772.28;4841530;29;20427;-77
2023/06/02 04:58:05;;;;;;;17.20;7.00;;;;;;;16.13;60.71;98792.66;4825289;29;20513;-76
2023/06/02 05:00:34;;;;;;;12.20;7.10;;;;;;;16.36;60.41;98813.53;4825352;29;20058;-75
2023/06/02 05:03:03;;;;;;;14.13;6.60;;;;;;;16.60;59.85;98783.94;4844105;29;20052;-75
2023/06/02 05:05:38;;;;;;;16.83;6.53;;;;;;;16.86;59.27;98784.63;4825503;29;20054;-76
2023/06/02 05:08:29;;;;;;;12.88;7.18;;;;;;;17.16;58.58;98790.28;4826505;29;20049;-76
2023/06/02 05:10:58;;;;;;;14.23;7.05;;;;;;;17.41;57.94;98794.59;4825504;29;20052;-76
2023/06/02 05:13:25;;;;;;;14.18;7.10;;;;;;;17.58;57.78;98779.22;4825188;29;20056;-75
2023/06/02 05:16:17;;;;;;;15.27;7.05;;;;;;;17.85;57.18;98778.75;4826628;29;20052;-76
2023/06/02 05:18:42;;;;;;;16.40;8.05;;;;;;;18.26;56.82;98783.94;4825221;29;20057;-75
2023/06/02 05:21:09;;;;;;;14.63;6.53;;;;;;;18.93;55.43;98766.00;4841259;29;20054;-76
2023/06/02 05:24:01;;;;;;;18.83;7.38;;;;;;;19.76;53.02;98735.97;4825771;29;20053;-77
2023/06/02 05:26:26;;;;;;;16.08;5.93;;;;;;;20.34;50.74;98749.50;4825399;29;20084;-77
2023/06/02 05:28:57;;;;;;;12.60;6.57;;;;;;;20.81;49.22;98752.44;4825036;29;20049;-76
2023/06/02 05:31:24;;;;;;;14.75;6.45;;;;;;;21.29;48.41;98755.31;4840187;29;20413;-73
2023/06/02 05:33:51;;;;;;;19.13;6.57;;;;;;;21.47;47.28;98754.78;4824892;29;20057;-74
2023/06/02 05:36:19;;;;;;;13.07;5.95;;;;;;;21.65;46.64;98761.34;4824806;29;20060;-74
2023/06/02 05:38:46;;;;;;;17.33;7.15;;;;;;;21.87;45.47;98751.22;4825796;29;20517;-75
2023/06/02 05:41:14;;;;;;;13.43;6.63;;;;;;;21.92;44.98;98756.84;4824795;29;20057;-76
2023/06/02 05:43:39;;;;;;;11.27;6.00;;;;;;;22.30;44.50;98731.94;4824679;29;20390;-75
2023/06/02 05:46:10;;;;;;;11.80;6.72;;;;;;;22.46;44.55;98747.81;4824551;29;20069;-75
2023/06/02 05:48:38;;;;;;;16.88;5.47;;;;;;;22.25;43.89;98737.13;4840870;29;20057;-77
2023/06/02 05:51:07;;;;;;;12.27;5.72;;;;;;;22.61;42.76;98729.44;4841089;29;20412;-76
2023/06/02 05:53:58;;;;;;;16.20;5.00;;;;;;;22.91;42.23;98735.31;4825968;29;20493;-76
2023/06/02 05:56:25;;;;;;;9.57;5.57;;;;;;;23.05;40.84;98704.34;4825944;29;20052;-77
2023/06/02 05:58:51;;;;;;;14.52;5.55;;;;;;;23.77;40.05;98730.50;4810876;29;20068;-79
2023/06/02 06:01:18;;;;;;;13.82;5.28;;;;;;;24.60;39.47;98730.47;4826573;29;20046;-76
2023/06/02 06:03:44;;;;;;;11.52;5.50;;;;;;;25.13;37.45;98752.66;4826323;29;20049;-78
2023/06/02 06:06:36;;;;;;;10.95;5.10;;;;;;;25.77;36.18;98748.63;4831909;29;20075;-77
2023/06/02 06:09:05;;;;;;;7.95;5.10;;;;;;;26.18;34.95;98755.25;4809989;29;20077;-77
2023/06/02 06:14:48;;;;;;;7.18;4.35;;;;;;;27.05;33.16;98723.63;4841481;29;20057;-79
2023/06/02 06:17:14;;;;;;;10.27;5.22;;;;;;;27.67;32.53;98715.69;4826723;29;20041;-78
2023/06/02 06:19:39;;;;;;;9.15;4.93;;;;;;;28.40;31.54;98720.44;4841750;29;20053;-78
2023/06/02 06:22:06;;;;;;;11.75;5.47;;;;;;;28.84;30.52;98713.25;4848243;29;20066;-81
2023/06/02 06:27:25;;;;;;;7.43;4.30;;;;;;;29.45;29.97;98723.28;4834845;29;20068;-78
2023/06/02 06:29:51;;;;;;;13.18;4.38;;;;;;;29.57;28.80;98725.91;4830105;29;20067;-78
2023/06/02 06:32:18;;;;;;;8.65;5.30;;;;;;;29.65;29.10;98727.38;4825967;29;20362;-79
2023/06/02 06:34:47;;;;;;;8.32;4.65;;;;;;;29.07;28.44;98732.28;4826350;29;20057;-77
2023/06/02 06:40:04;;;;;;;5.75;3.90;;;;;;;29.80;28.11;98719.28;4839711;29;20401;-75
2023/06/02 06:42:57;;;;;;;10.15;4.47;;;;;;;30.86;28.53;98700.34;4820660;29;20053;-78
2023/06/02 06:45:29;;;;;;;9.25;4.50;;;;;;;31.53;26.21;98710.69;4820761;29;20080;-77
2023/06/02 06:47:55;;;;;;;7.80;4.40;;;;;;;31.35;26.45;98721.09;4805091;29;20064;-75
2023/06/02 06:50:28;;;;;;;6.55;4.63;;;;;;;30.41;26.89;98706.25;4820135;29;20076;-76
2023/06/02 06:52:53;;;;;;;9.57;5.75;;;;;;;30.31;27.47;98716.06;4806573;29;20041;-77
2023/06/02 06:55:24;;;;;;;8.35;4.57;;;;;;;30.96;26.74;98700.41;4804961;29;20054;-75
2023/06/02 06:57:49;;;;;;;5.80;4.15;;;;;;;31.69;26.17;98693.19;4812280;29;20053;-75
2023/06/02 07:00:16;;;;;;;11.02;4.47;;;;;;;32.36;25.40;98695.88;4804685;29;20064;-75
2023/06/02 07:02:44;;;;;;;9.30;5.07;;;;;;;33.03;24.72;98692.03;4810715;29;20079;-75
2023/06/02 07:05:13;;;;;;;8.75;4.93;;;;;;;33.39;23.91;98698.34;4824259;29;20049;-76
2023/06/02 07:07:41;;;;;;;8.70;5.30;;;;;;;33.97;23.43;98712.50;4824228;29;20057;-75
2023/06/02 07:10:07;;;;;;;10.70;5.20;;;;;;;34.55;23.34;98676.72;4824176;29;20053;-75
2023/06/02 07:12:39;;;;;;;8.50;4.97;;;;;;;35.10;22.14;98677.38;4824040;29;20060;-75
2023/06/02 07:15:55;;;;;;;7.30;5.28;;;;;;;35.92;22.72;98664.22;4824511;29;20056;-76
2023/06/02 07:18:28;;;;;;;7.53;4.45;;;;;;;36.27;22.50;98677.63;4823961;29;20072;-76
2023/06/02 07:20:53;;;;;;;8.52;5.22;;;;;;;36.63;21.81;98660.38;4823085;29;20061;-76
2023/06/02 07:23:18;;;;;;;11.27;4.82;;;;;;;37.00;21.28;98663.09;4823891;29;20072;-75
2023/06/02 07:25:43;;;;;;;8.50;5.05;;;;;;;37.49;20.99;98672.72;4824256;29;20060;-75
2023/06/02 07:28:08;;;;;;;8.20;4.88;;;;;;;37.91;20.84;98665.22;4838249;29;20056;-76
2023/06/02 07:30:36;;;;;;;7.32;5.82;;;;;;;38.35;20.22;98679.25;4807441;29;20072;-76
2023/06/02 07:33:03;;;;;;;10.20;5.20;;;;;;;37.84;20.16;98653.66;4822104;29;20045;-78
2023/06/02 07:35:28;;;;;;;11.85;5.90;;;;;;;37.81;20.32;98666.25;4823999;29;20061;-78
2023/06/02 07:37:57;;;;;;;5.28;4.75;;;;;;;38.31;20.64;98650.38;4824941;29;20398;-76
2023/06/02 07:40:23;;;;;;;11.30;5.90;;;;;;;38.96;19.44;98649.84;4824176;29;20053;-76
2023/06/02 07:42:53;;;;;;;11.02;5.63;;;;;;;39.68;18.93;98634.78;4807117;29;20049;-76
2023/06/02 07:45:22;;;;;;;6.07;5.32;;;;;;;40.67;18.03;98638.63;4823760;29;20057;-75
2023/06/02 07:47:49;;;;;;;8.65;6.30;;;;;;;40.98;17.99;98639.22;4823933;29;20048;-75
2023/06/02 07:50:15;;;;;;;14.00;6.43;;;;;;;41.20;17.74;98629.84;4822413;29;20053;-75
2023/06/02 07:55:34;;;;;;;9.50;5.95;;;;;;;40.92;17.34;98643.38;4838022;29;20045;-75
2023/06/02 07:58:02;;;;;;;10.52;6.10;;;;;;;40.52;18.10;98621.22;4823793;29;20045;-74
2023/06/02 08:00:30;;;;;;;8.45;6.90;;;;;;;40.52;18.39;98629.59;4807057;29;20100;-74
2023/06/02 08:02:57;;;;;;;9.00;6.30;;;;;;;40.77;18.12;98621.53;4823673;29;20053;-74
2023/06/02 08:05:28;;;;;;;9.77;6.28;;;;;;;41.05;17.85;98621.94;4822420;29;20053;-74
2023/06/02 08:07:54;;;;;;;11.95;6.80;;;;;;;41.40;17.75;98615.09;4822233;29;20053;-75
2023/06/02 08:10:23;;;;;;;6.88;6.18;;;;;;;41.90;17.26;98615.09;4837742;29;20501;-75
2023/06/02 08:12:49;;;;;;;10.63;6.15;;;;;;;40.91;17.19;98609.00;4823597;29;20045;-75
2023/06/02 08:15:23;;;;;;;9.20;6.40;;;;;;;40.38;17.72;98600.22;4823444;29;20398;-75
2023/06/02 08:17:50;;;;;;;11.60;6.50;;;;;;;40.00;18.07;98619.59;4822390;29;20094;-74
2023/06/02 08:20:18;;;;;;;9.15;6.53;;;;;;;39.98;17.90;98607.91;4822289;29;20104;-74
2023/06/02 08:22:47;;;;;;;7.03;6.15;;;;;;;39.15;18.27;98594.72;4823686;29;20417;-74
2023/06/02 08:25:15;;;;;;;9.48;6.57;;;;;;;38.93;18.53;98608.72;4841298;29;20045;-74
2023/06/02 08:27:44;;;;;;;6.18;5.55;;;;;;;39.14;18.68;98587.50;4840886;29;20080;-75
2023/06/02 08:30:12;;;;;;;9.63;6.03;;;;;;;39.79;18.24;98606.22;4826874;29;20048;-75
2023/06/02 08:32:39;;;;;;;7.13;5.60;;;;;;;38.39;18.71;98602.28;4827022;29;20401;-76
2023/06/02 08:35:08;;;;;;;8.90;5.82;;;;;;;38.41;18.83;98600.00;4827068;29;20053;-75
2023/06/02 08:37:33;;;;;;;9.27;6.53;;;;;;;38.34;18.74;98596.03;4824832;29;20088;-75
2023/06/02 08:40:03;;;;;;;9.45;5.70;;;;;;;38.41;19.37;98594.44;4825649;29;20064;-74
2023/06/02 08:42:57;;;;;;;7.30;5.43;;;;;;;39.64;19.31;98594.72;4840682;29;20114;-74
2023/06/02 08:45:25;;;;;;;8.10;6.43;;;;;;;39.01;18.47;98541.06;4826684;29;20053;-74
2023/06/02 08:47:54;;;;;;;8.52;6.45;;;;;;;38.76;19.09;98553.69;4826579;29;20053;-75
2023/06/02 08:50:23;;;;;;;15.07;7.15;;;;;;;38.96;19.23;98532.78;4826998;29;20061;-74
2023/06/02 08:52:50;;;;;;;8.98;6.72;;;;;;;38.80;18.99;98531.59;4841233;29;20060;-75
2023/06/02 08:55:16;;;;;;;7.80;6.03;;;;;;;38.86;19.20;98530.28;4825566;29;20076;-75
2023/06/02 08:57:42;;;;;;;9.65;6.95;;;;;;;39.56;18.69;98527.44;4841415;29;20853;-76
2023/06/02 09:00:34;;;;;;;8.20;6.55;;;;;;;40.47;18.55;98518.03;4825073;29;20049;-75
2023/06/02 09:03:02;;;;;;;10.90;7.13;;;;;;;40.90;18.13;98519.88;4826606;29;20053;-76
2023/06/02 09:05:32;;;;;;;11.27;8.18;;;;;;;41.68;17.90;98523.06;4826406;29;20131;-76
2023/06/02 09:08:12;;;;;;;8.35;7.43;;;;;;;42.50;17.08;98521.34;4825205;29;20402;-75
2023/06/02 09:10:41;;;;;;;9.23;8.32;;;;;;;42.76;17.08;98515.44;4826432;29;20041;-75
2023/06/02 09:13:08;;;;;;;10.32;8.30;;;;;;;43.16;17.01;98501.56;4826628;29;20409;-75
2023/06/02 09:15:35;;;;;;;9.13;8.18;;;;;;;43.76;16.07;98511.09;4825277;29;20056;-74
2023/06/02 09:18:15;;;;;;;9.45;8.02;;;;;;;42.91;16.85;98503.56;4825007;29;20057;-79
2023/06/02 09:20:47;;;;;;;8.85;7.95;;;;;;;41.95;17.18;98500.16;4826471;29;20049;-77
2023/06/02 09:23:14;;;;;;;9.40;7.80;;;;;;;40.96;17.73;98501.78;4809877;29;20049;-74
2023/06/02 09:25:45;;;;;;;9.90;7.63;;;;;;;40.20;18.63;98490.47;4826147;29;20053;-75
2023/06/02 09:28:12;;;;;;;9.27;6.65;;;;;;;40.28;18.33;98483.28;4825319;29;20049;-74
2023/06/02 09:30:39;;;;;;;9.57;7.72;;;;;;;40.38;18.06;98480.13;4825486;29;20523;-77
2023/06/02 09:33:12;;;;;;;10.27;7.22;;;;;;;40.21;18.71;98483.72;4826139;29;20417;-77
2023/06/02 09:35:48;;;;;;;10.05;7.18;;;;;;;40.11;18.64;98470.94;4825988;29;20065;-77
2023/06/02 09:38:16;;;;;;;9.70;7.55;;;;;;;40.62;18.51;98469.19;4826848;29;20061;-78
2023/06/02 09:43:36;;;;;;;11.32;7.75;;;;;;;41.15;18.49;98465.81;4827317;29;20061;-75
2023/06/02 09:46:03;;;;;;;9.23;8.30;;;;;;;42.02;17.98;98465.97;4831247;29;20075;-76
2023/06/02 09:48:39;;;;;;;10.03;8.47;;;;;;;42.68;17.33;98454.69;4827829;29;20524;-77
2023/06/02 09:51:22;;;;;;;9.52;7.20;;;;;;;44.86;16.01;98458.78;4826890;29;20049;-76
2023/06/02 09:53:48;;;;;;;10.02;9.00;;;;;;;42.36;16.50;98442.38;4809875;29;20068;-76
2023/06/02 09:56:15;;;;;;;8.65;7.75;;;;;;;41.42;17.55;98438.50;4825397;29;20454;-76
2023/06/02 09:59:06;;;;;;;11.75;9.07;;;;;;;41.52;17.31;98435.28;4826636;29;20052;-77
2023/06/02 10:01:35;;;;;;;9.00;8.13;;;;;;;41.83;17.27;98424.47;4824713;29;20057;-75
2023/06/02 10:04:26;;;;;;;9.65;8.68;;;;;;;42.48;16.75;98420.00;4826284;29;20041;-76
2023/06/02 10:07:13;;;;;;;11.57;8.68;;;;;;;42.98;16.49;98421.66;4825491;29;20789;-75
2023/06/02 10:10:06;;;;;;;9.43;8.52;;;;;;;44.55;15.18;98430.66;4825105;29;20076;-76
2023/06/02 10:12:56;;;;;;;8.98;8.15;;;;;;;43.03;15.78;98418.59;4826266;29;20068;-77
2023/06/02 10:15:36;;;;;;;9.30;8.35;;;;;;;41.63;17.04;98420.56;4826199;29;20048;-77
2023/06/02 10:18:48;;;;;;;9.60;8.63;;;;;;;43.33;15.43;98413.56;4811629;29;20053;-76
2023/06/02 10:21:37;;;;;;;11.25;10.25;;;;;;;44.13;15.66;98402.25;4808357;29;20728;-76
2023/06/02 10:24:54;;;;;;;9.93;8.95;;;;;;;44.45;14.80;98398.28;4808145;29;20053;-77
2023/06/02 10:27:31;;;;;;;15.77;10.05;;;;;;;43.56;15.26;98397.81;4833163;29;20049;-77
2023/06/02 10:30:00;;;;;;;9.57;8.57;;;;;;;41.01;16.08;98403.69;4821340;29;20052;-74
2023/06/02 10:32:33;;;;;;;8.20;6.72;;;;;;;37.24;18.61;98392.50;4809054;29;20045;-75
2023/06/02 10:35:02;;;;;;;8.82;6.07;;;;;;;34.69;21.23;98391.72;4823352;29;20061;-75
2023/06/02 10:40:51;;;;;;;7.43;6.13;;;;;;;32.65;22.74;98442.25;4807472;29;20060;-76
2023/06/02 10:43:24;;;;;;;9.48;5.97;;;;;;;30.85;24.56;98428.97;4813080;29;20061;-76
2023/06/02 10:46:20;;;;;;;7.55;5.20;;;;;;;29.85;26.35;98431.69;4812592;29;20049;-77
2023/06/02 10:48:51;;;;;;;9.45;5.30;;;;;;;29.83;25.34;98430.28;4825710;29;20550;-76
2023/06/02 10:51:18;;;;;;;8.38;5.50;;;;;;;29.22;26.33;98416.00;4809065;29;20050;-75
2023/06/02 10:54:11;;;;;;;10.02;6.03;;;;;;;29.15;26.37;98418.94;4808089;29;20386;-76
2023/06/02 10:56:41;;;;;;;6.95;4.72;;;;;;;28.33;26.32;98451.94;4806430;29;20060;-75
2023/06/02 10:59:34;;;;;;;6.72;4.78;;;;;;;27.74;27.92;98421.47;4828401;29;20053;-76
2023/06/02 11:02:04;;;;;;;6.50;4.90;;;;;;;27.25;28.59;98411.28;4825519;29;20038;-76
2023/06/02 11:04:31;;;;;;;9.68;4.97;;;;;;;27.08;28.03;98417.56;4821684;29;20438;-75
2023/06/02 11:07:21;;;;;;;7.47;4.60;;;;;;;27.19;27.22;98417.75;4819750;29;20042;-77
2023/06/02 11:09:54;;;;;;;9.82;5.00;;;;;;;26.67;28.89;98421.38;4810481;29;20052;-76
2023/06/02 11:12:57;;;;;;;10.60;5.15;;;;;;;26.52;28.13;98407.41;4809378;29;20437;-74
2023/06/02 11:15:26;;;;;;;6.88;5.28;;;;;;;26.24;28.44;98399.94;4815988;29;20049;-74
2023/06/02 11:17:53;;;;;;;8.07;4.75;;;;;;;26.23;29.10;98398.28;4809826;29;20053;-76
2023/06/02 11:20:18;;;;;;;6.68;4.88;;;;;;;26.20;28.55;98408.84;4814645;29;20424;-77
2023/06/02 11:25:38;;;;;;;6.38;4.50;;;;;;;26.09;28.74;98417.88;4826748;29;20049;-77
2023/06/02 11:28:53;;;;;;;7.85;5.00;;;;;;;26.12;29.13;98404.59;4825701;29;20119;-77
2023/06/02 11:31:19;;;;;;;11.75;4.38;;;;;;;26.25;28.84;98398.03;4825532;29;20069;-75
2023/06/02 11:33:50;;;;;;;12.43;5.45;;;;;;;26.26;28.69;98391.50;4823275;29;20044;-76
2023/06/02 11:36:30;;;;;;;7.22;4.70;;;;;;;26.42;29.10;98357.16;4807632;29;20084;-78
2023/06/02 11:39:02;;;;;;;7.70;4.45;;;;;;;26.26;28.97;98384.16;4838375;29;20542;-76
2023/06/02 11:41:31;;;;;;;6.70;4.30;;;;;;;26.22;29.05;98374.75;4823215;29;20421;-72
2023/06/02 11:44:05;;;;;;;7.32;4.70;;;;;;;26.22;29.48;98371.19;4809941;29;20046;-71
2023/06/02 11:46:31;;;;;;;11.63;4.55;;;;;;;26.00;29.18;98363.63;4823198;29;20053;-71
2023/06/02 11:49:35;;;;;;;7.43;4.95;;;;;;;26.02;29.11;98368.84;4822790;29;20496;-72
2023/06/02 11:52:04;;;;;;;7.72;5.45;;;;;;;25.70;29.27;98378.50;4830849;29;20042;-71
2023/06/02 11:54:56;;;;;;;8.85;5.75;;;;;;;25.57;29.66;98394.00;4808585;29;20046;-71
2023/06/02 11:57:27;;;;;;;10.00;4.60;;;;;;;25.15;30.48;98384.22;4822477;29;20802;-70
2023/06/02 12:00:06;;;;;;;6.55;4.85;;;;;;;25.22;30.06;98361.22;4823442;29;20056;-73
2023/06/02 12:05:42;;;;;;;8.82;4.80;;;;;;;24.78;30.63;98357.03;4816098;29;20049;-72
2023/06/02 12:08:24;;;;;;;11.75;5.28;;;;;;;24.72;31.45;98379.75;4812813;29;20049;-74
2023/06/02 12:10:51;;;;;;;11.43;5.43;;;;;;;24.77;31.21;98354.56;4826160;29;20046;-74
2023/06/02 12:13:30;;;;;;;7.22;4.75;;;;;;;24.75;31.50;98346.59;4811584;29;20057;-75
2023/06/02 12:16:20;;;;;;;8.82;5.90;;;;;;;24.59;31.67;98341.81;4811572;29;20054;-73
2023/06/02 12:18:48;;;;;;;7.47;5.10;;;;;;;24.60;31.90;98352.47;4815070;29;20042;-72
2023/06/02 12:21:28;;;;;;;11.85;5.40;;;;;;;24.71;31.37;98344.59;4818390;29;20057;-75
2023/06/02 12:23:57;;;;;;;13.13;4.85;;;;;;;24.74;31.64;98339.47;4817434;29;20060;-78
2023/06/02 12:26:24;;;;;;;8.15;5.43;;;;;;;24.75;32.24;98335.69;4831077;29;20064;-78
2023/06/02 12:29:17;;;;;;;44.17;6.32;;;;;;;24.42;32.71;98340.78;4834760;29;20429;-79
2023/06/02 12:34:40;;;;;;;10.57;5.47;;;;;;;24.23;33.07;98343.53;4816231;29;20060;-70
2023/06/02 12:37:31;;;;;;;12.38;5.70;;;;;;;24.13;33.78;98342.38;4825664;29;20052;-71
2023/06/02 12:39:58;;;;;;;9.00;4.93;;;;;;;24.16;33.59;98348.19;4818423;29;20054;-72